Hovedside
METAR-TAF:

METAR-TAF

Lufthavner :

Bergen lufthavn. Flesland

Bergen, Norge

breddegrad: 60-17N, lengdegrad: 005-14E, høyde over havet: 5 m

Gjeldene værobservasjon

Denne rapporten ble laget for 18 minutter siden, klokken 09:50 UTC
Vind 3 kt fra Vest-nordvest, skiftende mellom Sør-sørvest og Nord
Temperatur 19°C
Luftfuktighet 49%
Trykk 1013 hPa
Sikt 10 km eller mer
ingen skyer under 1500 m og ingen bygeskyer

METAR: ENBR 200950Z 29003KT 210V010 CAVOK 19/08 Q1013 NOSIG RMK WIND 1200FT 00000KT

Tid: 12:08 (10:08 UTC)

Varsel

Varsel gyldig fra 20. klokken 06 UTC til 21. klokken 06 UTC
Vind 5 kt fra skiftende retning
Sikt 10 km eller mer
ingen skyer under 1500 m og ingen bygeskyer
Blir
fra 20. klokken 10 UTC til 20. klokken 12 UTC
Vind 12 kt fra Nord
Blir
fra 20. klokken 20 UTC til 20. klokken 22 UTC
Vind 5 kt fra skiftende retning

TAF: ENBR 2006/2106 VRB05KT CAVOK BECMG 2010/2012 35012KT BECMG 2020/2022 VRB05KT

Værobservasjoner og værvarsel for over 4000 flyplasser (METAR- og TAF-rapporter).

Tilgjengelige stasjoner er representert av de røde og gule prikkene på kartet.

Hold musepekeren over prikken for å se navnet på stasjonen.

Klikk så for å se værobservasjoner og -varsler.

For å forandre kartet kan du klikke på den grønne knappen med svart kryss for å zoome inn, på den grønne knappen med strek for å zoome ut, eller på de grønne pilene for å se tilstøtende kart.


METAR-TAF: